KHLB/HLB METAR and TAF weather

Enter ICAO airport designator
Station Type Date Time Source
KHLB METAR 2021/05/11 22:15 UTC NOAA

KHLB 112215Z AUTO 00000G13KT 10SM CLR 13/M01 A3025 RMK A01


Station Type Date Time Source
KHLB Decoded METAR 2021/05/11 22:15 UTC NOAA

Station name not available
May 11, 2021 - 06:15 PM EDT / 2021.05.11 2215 UTC
Wind: Calm gusting to 15 MPH (13 KT):0
Visibility: 10 mile(s):0
Sky conditions: clear
Temperature: 55 F (13 C)
Dew Point: 30 F (-1 C)
Relative Humidity: 37%
Pressure (altimeter): 30.25 in. Hg (1024 hPa)
ob: KHLB 112215Z AUTO 00000G13KT 10SM CLR 13/M01 A3025 RMK A01
cycle: 22

Station Type Date Time Source
KHLB TAF UTC NOAA

Error!

Example: see airport list